KRWI/RWI METAR and TAF weather

Enter ICAO airport designator
Station Type Date Time Source
KRWI METAR 2019/06/26 05:53 UTC NOAA

KRWI 260553Z AUTO 00000KT 10SM CLR 22/20 A3002 RMK AO2 SLP163 T02170200 10289 20217 51006


Station Type Date Time Source
KRWI Decoded METAR 2019/06/26 05:53 UTC NOAA

ROCKY MOUNT-WILSON AIRPORT, NC, United States (KRWI) 35-51N 077-54W 47M
Jun 26, 2019 - 01:53 AM EDT / 2019.06.26 0553 UTC
Wind: Calm:0
Visibility: 10 mile(s):0
Sky conditions: clear
Temperature: 71.1 F (21.7 C)
Dew Point: 68.0 F (20.0 C)
Relative Humidity: 90%
Pressure (altimeter): 30.02 in. Hg (1016 hPa)
Pressure tendency: 0.02 inches (0.6 hPa) higher than three hours ago
ob: KRWI 260553Z AUTO 00000KT 10SM CLR 22/20 A3002 RMK AO2 SLP163 T02170200 10289 20217 51006
cycle: 6

Station Type Date Time Source
KRWI TAF 2019/06/26 06:24 UTC NOAA

TAF KRWI 260523Z 2606/2706 VRB03KT P6SM BKN250
FM261800 01005KT P6SM SCT250

Example: see airport list